Date,TemperatureHighF,TemperatureAvgF,TemperatureLowF,DewpointHighF,DewpointAvgF,DewpointLowF,HumidityHigh,HumidityAvg,HumidityLow,PressureMaxIn,PressureMinIn,WindSpeedMaxMPH,WindSpeedAvgMPH,GustSpeedMaxMPH,PrecipitationSumIn
2013-1-1,52,44,35,40,37,33,95,79,55,30.27,30.20,6,1,11,0.00
2013-1-2,57,41,31,41,34,30,95,78,39,30.25,30.12,5,1,7,0.01
2013-1-3,56,42,32,44,36,31,96,83,50,30.26,30.16,3,0,6,0.01
2013-1-4,58,44,35,40,37,33,96,77,41,30.29,30.17,4,1,7,0.00
2013-1-5,54,47,37,48,43,35,94,87,73,30.25,30.06,6,1,10,0.04
2013-1-6,50,46,39,47,43,38,95,90,77,30.18,30.04,7,1,8,0.09
2013-1-7,58,46,37,50,43,36,97,89,71,30.25,30.15,4,0,6,0.00
2013-1-8,62,48,40,49,44,39,97,85,58,30.23,30.12,4,0,6,0.01
2013-1-9,56,47,41,50,43,38,97,87,74,30.14,30.01,9,1,18,0.00
2013-1-10,52,46,39,38,36,34,89,70,54,30.19,30.08,11,3,18,0.00
2013-1-11,52,45,35,41,37,32,90,72,54,30.26,30.12,13,2,14,0.00
2013-1-12,50,41,33,38,30,20,96,70,31,30.25,30.13,7,1,7,0.00
2013-1-13,50,38,29,31,27,16,93,68,29,30.27,30.16,6,1,8,0.01
2013-1-14,51,39,29,30,22,14,81,55,24,30.41,30.23,5,1,9,0.00
2013-1-15,55,41,30,34,30,24,92,68,32,30.47,30.39,5,1,8,0.00
2013-1-16,57,42,32,35,32,28,91,71,32,30.43,30.25,4,0,6,0.00
2013-1-17,64,46,34,43,35,31,90,70,34,30.26,30.14,4,1,6,0.00
2013-1-18,65,47,34,40,36,32,94,70,34,30.22,30.12,3,1,8,0.00
2013-1-19,64,46,34,42,36,32,94,71,34,30.24,30.14,3,0,6,0.00
2013-1-20,65,47,34,41,36,31,95,69,28,30.22,30.11,3,0,7,0.00
2013-1-21,64,47,33,45,36,31,93,71,32,30.17,30.07,6,1,7,0.00
2013-1-22,62,47,37,46,39,34,92,74,40,30.10,29.99,5,0,6,0.00
2013-1-23,55,50,47,52,46,42,95,86,74,30.08,29.95,4,0,6,0.11
2013-1-24,57,53,50,52,50,49,96,90,80,30.18,30.06,4,0,7,0.01
2013-1-25,64,56,51,55,52,49,95,87,71,30.18,30.03,6,1,10,0.01
2013-1-26,57,51,46,50,44,40,96,78,56,30.08,30.01,12,2,19,0.00
2013-1-27,56,49,44,41,39,29,82,69,36,30.17,30.08,10,3,14,0.00
2013-1-28,57,50,43,44,41,37,89,74,57,30.29,30.17,9,3,14,0.00
2013-1-29,59,50,43,45,42,40,88,75,58,30.36,30.26,6,2,10,0.00
2013-1-30,68,51,40,47,41,38,94,73,36,30.34,30.24,6,1,8,0.00
2013-1-31,65,50,38,47,42,37,95,77,44,30.29,30.16,5,1,8,0.00